Time;durP1;ratioP1;P1;durP2;ratioP2;P2;SDS_P1;SDS_P2;PMS_P1;PMS_P2;Temp;Humidity;BMP_temperature;BMP_pressure;BME280_temperature;BME280_humidity;BME280_pressure;Samples;Min_cycle;Max_cycle;Signal;HPM_P1;HPM_P2
2023/09/07 00:01:04;;;;;;;;;;;;;;;22.10;42.27;101877.81;4972120;28;124990;-65
2023/09/07 00:03:31;;;;;;;;;;;;;;;22.06;42.42;101876.34;4971875;28;115463;-66
2023/09/07 00:05:59;;;;;;;;;;;;;;;22.04;42.51;101883.66;4964544;28;113793;-66
2023/09/07 00:08:26;;;;;;;;;;;;;;;22.00;42.52;101871.38;4968580;28;124004;-66
2023/09/07 00:10:53;;;;;;;;;;;;;;;21.96;42.55;101879.75;4970633;28;124514;-66
2023/09/07 00:13:19;;;;;;;;;;;;;;;21.91;42.52;101879.22;4970835;28;114871;-66
2023/09/07 00:15:47;;;;;;;;;;;;;;;21.88;42.51;101876.75;4969197;28;115079;-66
2023/09/07 00:18:14;;;;;;;;;;;;;;;21.84;42.62;101872.56;4971045;28;124362;-66
2023/09/07 00:20:45;;;;;;;;;;;;;;;21.80;42.68;101865.69;4969365;28;124907;-66
2023/09/07 00:23:11;;;;;;;;;;;;;;;21.76;42.71;101869.63;4970496;28;114317;-66
2023/09/07 00:25:39;;;;;;;;;;;;;;;21.73;42.72;101867.16;4969549;28;113735;-66
2023/09/07 00:28:06;;;;;;;;;;;;;;;21.71;42.72;101877.19;4968565;28;124510;-66
2023/09/07 00:30:33;;;;;;;;;;;;;;;21.68;42.75;101863.94;4970193;28;123737;-66
2023/09/07 00:33:00;;;;;;;;;;;;;;;21.65;42.76;101866.88;4969710;28;115376;-66
2023/09/07 00:35:27;;;;;;;;;;;;;;;21.62;42.80;101864.41;4963538;28;112769;-66
2023/09/07 00:37:54;;;;;;;;;;;;;;;21.57;42.77;101865.63;4953347;28;123294;-65
2023/09/07 00:40:26;;;;;;;;;;;;;;;21.53;42.75;101858.75;4964049;28;123992;-65
2023/09/07 00:42:53;;;;;;;;;;;;;;;21.49;42.84;101862.66;4953922;28;114376;-66
2023/09/07 00:45:21;;;;;;;;;;;;;;;21.44;42.90;101854.03;4954144;28;112676;-66
2023/09/07 00:47:48;;;;;;;;;;;;;;;21.41;42.94;101856.06;4968276;28;124498;-66
2023/09/07 00:50:16;;;;;;;;;;;;;;;21.39;42.95;101853.47;4952411;28;124148;-66
2023/09/07 00:52:43;;;;;;;;;;;;;;;21.35;43.05;101849.31;4967485;28;114573;-66
2023/09/07 00:55:10;;;;;;;;;;;;;;;21.31;42.95;101853.22;4973216;28;112692;-66
2023/09/07 00:57:39;;;;;;;;;;;;;;;21.28;43.03;101853.41;4968292;28;124505;-66
2023/09/07 01:00:07;;;;;;;;;;;;;;;21.24;43.06;101841.16;4946531;28;124072;-66
2023/09/07 01:02:34;;;;;;;;;;;;;;;21.20;43.09;101846.75;4968788;28;115430;-66
2023/09/07 01:05:05;;;;;;;;;;;;;;;21.17;43.06;101840.75;4963277;28;113900;-66
2023/09/07 01:07:37;;;;;;;;;;;;;;;21.13;43.18;101845.50;4963144;28;124151;-66
2023/09/07 01:10:04;;;;;;;;;;;;;;;21.11;43.24;101841.19;4947181;28;123400;-66
2023/09/07 01:12:31;;;;;;;;;;;;;;;21.09;43.29;101848.53;4965197;28;113643;-65
2023/09/07 01:14:58;;;;;;;;;;;;;;;21.08;43.26;101841.41;4969486;28;113164;-66
2023/09/07 01:17:26;;;;;;;;;;;;;;;21.05;43.23;101842.50;4952259;28;123495;-65
2023/09/07 01:19:54;;;;;;;;;;;;;;;21.04;43.38;101851.59;4969200;28;123608;-66
2023/09/07 01:22:24;;;;;;;;;;;;;;;21.02;43.35;101852.66;4966133;28;114192;-65
2023/09/07 01:24:52;;;;;;;;;;;;;;;21.00;43.31;101850.06;4953572;28;113573;-66
2023/09/07 01:27:19;;;;;;;;;;;;;;;20.96;43.32;101849.44;4949293;28;124342;-65
2023/09/07 01:29:46;;;;;;;;;;;;;;;20.92;43.28;101841.69;4948457;28;123881;-65
2023/09/07 01:32:13;;;;;;;;;;;;;;;20.91;43.35;101842.69;4969127;28;113408;-66
2023/09/07 01:34:41;;;;;;;;;;;;;;;20.88;43.45;101840.19;4954033;28;112838;-66
2023/09/07 01:37:08;;;;;;;;;;;;;;;20.86;43.46;101842.16;4952054;28;123307;-65
2023/09/07 01:39:36;;;;;;;;;;;;;;;20.86;43.54;101831.38;4970031;28;123644;-65
2023/09/07 01:42:04;;;;;;;;;;;;;;;20.86;43.61;101839.44;4974642;28;114973;-65
2023/09/07 01:44:31;;;;;;;;;;;;;;;20.86;43.64;101843.00;4973812;28;112654;-65
2023/09/07 01:46:58;;;;;;;;;;;;;;;20.86;43.63;101844.84;4952220;28;123510;-65
2023/09/07 01:49:27;;;;;;;;;;;;;;;20.84;43.58;101833.31;4967952;28;125040;-65
2023/09/07 01:51:54;;;;;;;;;;;;;;;20.82;43.64;101835.28;4969247;28;115981;-65
2023/09/07 01:54:21;;;;;;;;;;;;;;;20.78;43.66;101834.63;4953201;28;114000;-65
2023/09/07 01:56:48;;;;;;;;;;;;;;;20.74;43.72;101836.69;4949780;28;124004;-65
2023/09/07 01:59:15;;;;;;;;;;;;;;;20.73;43.71;101832.25;4952585;28;123309;-65
2023/09/07 02:01:43;;;;;;;;;;;;;;;20.72;43.78;101830.56;4952146;28;113585;-67
2023/09/07 02:04:10;;;;;;;;;;;;;;;20.72;43.82;101835.06;4970830;28;114440;-65
2023/09/07 02:06:37;;;;;;;;;;;;;;;20.70;43.83;101837.88;4963425;28;124185;-67
2023/09/07 02:09:04;;;;;;;;;;;;;;;20.68;43.79;101834.44;4965403;28;124512;-65
2023/09/07 02:11:31;;;;;;;;;;;;;;;20.68;43.86;101838.94;4960521;28;113469;-66
2023/09/07 02:13:58;;;;;;;;;;;;;;;20.66;43.89;101830.97;4952982;28;113078;-66
2023/09/07 02:16:26;;;;;;;;;;;;;;;20.64;43.87;101838.28;4968226;28;124258;-65
2023/09/07 02:19:00;;;;;;;;;;;;;;;20.61;43.88;101827.78;4948928;28;123205;-65
2023/09/07 02:21:27;;;;;;;;;;;;;;;20.60;43.91;101836.81;4965466;28;114852;-65
2023/09/07 02:23:54;;;;;;;;;;;;;;;20.58;43.92;101838.72;4964674;28;114611;-64
2023/09/07 02:26:21;;;;;;;;;;;;;;;20.54;43.93;101831.84;4963469;28;124794;-65
2023/09/07 02:28:49;;;;;;;;;;;;;;;20.52;43.96;101833.78;5340426;22;123999;-75
2023/09/07 02:31:16;;;;;;;;;;;;;;;20.49;43.94;101828.59;4910064;28;113203;-75
2023/09/07 02:33:43;;;;;;;;;;;;;;;20.47;43.96;101835.94;4918503;28;113414;-76
2023/09/07 02:36:10;;;;;;;;;;;;;;;20.42;43.92;101834.44;4945629;28;124922;-76
2023/09/07 02:38:37;;;;;;;;;;;;;;;20.39;43.99;101834.63;4939624;28;124298;-76
2023/09/07 02:41:04;;;;;;;;;;;;;;;20.37;44.04;101831.19;4936378;28;116233;-76
2023/09/07 02:43:32;;;;;;;;;;;;;;;20.35;44.01;101827.75;4950189;28;116193;-75
2023/09/07 02:45:59;;;;;;;;;;;;;;;20.32;44.15;101833.34;4931472;28;125364;-76
2023/09/07 02:48:26;;;;;;;;;;;;;;;20.29;44.09;101828.19;4950126;28;123315;-75
2023/09/07 02:50:54;;;;;;;;;;;;;;;20.28;44.17;101829.16;4950258;28;115265;-76
2023/09/07 02:53:23;;;;;;;;;;;;;;;20.28;44.17;101826.47;4947634;28;113314;-76
2023/09/07 02:55:50;;;;;;;;;;;;;;;20.26;44.15;101833.78;4950113;28;123935;-76
2023/09/07 02:58:17;;;;;;;;;;;;;;;20.25;44.08;101832.06;4949712;28;124452;-75
2023/09/07 03:00:46;;;;;;;;;;;;;;;20.23;44.08;101836.72;4942985;28;113793;-76
2023/09/07 03:03:15;;;;;;;;;;;;;;;20.20;44.19;101839.59;4944481;28;112949;-76
2023/09/07 03:05:45;;;;;;;;;;;;;;;20.17;44.30;101831.72;4927502;28;124745;-76
2023/09/07 03:08:12;;;;;;;;;;;;;;;20.15;44.27;101836.38;4933798;28;125252;-76
2023/09/07 03:10:39;;;;;;;;;;;;;;;20.14;44.41;101837.34;4950092;28;115518;-76
2023/09/07 03:13:07;;;;;;;;;;;;;;;20.14;44.30;101829.28;4948031;28;114853;-76
2023/09/07 03:15:35;;;;;;;;;;;;;;;20.14;44.55;101829.28;4935121;28;123703;-76
2023/09/07 03:18:06;;;;;;;;;;;;;;;20.14;44.33;101834.66;4949995;28;124019;-76
2023/09/07 03:20:34;;;;;;;;;;;;;;;20.15;44.44;101836.38;4942649;28;114531;-76
2023/09/07 03:23:03;;;;;;;;;;;;;;;20.14;44.51;101834.66;4945083;28;114786;-76
2023/09/07 03:25:30;;;;;;;;;;;;;;;20.14;44.55;101829.28;4946728;28;123145;-76
2023/09/07 03:27:58;;;;;;;;;;;;;;;20.14;44.35;101823.91;4959147;28;123039;-76
2023/09/07 03:30:25;;;;;;;;;;;;;;;20.12;44.44;101823.16;4948767;28;114404;-76
2023/09/07 03:32:53;;;;;;;;;;;;;;;20.09;44.49;101826.03;4945625;28;115463;-76
2023/09/07 03:35:21;;;;;;;;;;;;;;;20.08;44.51;101824.31;4950831;28;123806;-76
2023/09/07 03:37:47;;;;;;;;;;;;;;;20.07;44.68;101817.22;4951218;28;124716;-76
2023/09/07 03:40:14;;;;;;;;;;;;;;;20.05;44.72;101827.22;4947932;28;114105;-76
2023/09/07 03:42:43;;;;;;;;;;;;;;;20.05;44.78;101819.16;4949438;28;114654;-76
2023/09/07 03:45:11;;;;;;;;;;;;;;;20.04;44.91;101820.97;4942191;28;123589;-76
2023/09/07 03:47:38;;;;;;;;;;;;;;;20.05;44.93;101825.38;4944203;28;124263;-75
2023/09/07 03:50:06;;;;;;;;;;;;;;;20.06;44.82;101829.81;4949429;28;115658;-75
2023/09/07 03:52:34;;;;;;;;;;;;;;;20.08;44.82;101824.31;4940880;28;114992;-76
2023/09/07 03:55:03;;;;;;;;;;;;;;;20.08;44.85;101818.94;4943944;28;124723;-76
2023/09/07 03:57:30;;;;;;;;;;;;;;;20.07;44.89;101823.44;4945516;28;125303;-76
2023/09/07 03:59:57;;;;;;;;;;;;;;;20.07;44.97;101823.44;4940743;28;113543;-76
2023/09/07 04:02:24;;;;;;;;;;;;;;;20.07;45.04;101826.16;4946786;28;113944;-76
2023/09/07 04:04:53;;;;;;;;;;;;;;;20.09;45.00;101836.78;4948946;28;123985;-76
2023/09/07 04:07:21;;;;;;;;;;;;;;;20.10;45.18;101835.81;4950664;28;124679;-76
2023/09/07 04:09:48;;;;;;;;;;;;;;;20.11;45.21;101834.84;4948837;28;113586;-76
2023/09/07 04:12:14;;;;;;;;;;;;;;;20.13;45.11;101832.91;4945997;28;113023;-76
2023/09/07 04:14:42;;;;;;;;;;;;;;;20.15;45.18;101830.97;4948796;28;125333;-76
2023/09/07 04:17:10;;;;;;;;;;;;;;;20.18;45.20;101836.16;4948723;28;123843;-76
2023/09/07 04:19:36;;;;;;;;;;;;;;;20.19;45.04;101833.38;4948228;28;114299;-76
2023/09/07 04:22:03;;;;;;;;;;;;;;;20.19;45.02;101838.75;4950519;28;114618;-76
2023/09/07 04:24:30;;;;;;;;;;;;;;;20.17;45.10;101824.56;4948899;28;123340;-77
2023/09/07 04:26:58;;;;;;;;;;;;;;;20.16;45.18;101832.72;4948423;28;125451;-76
2023/09/07 04:29:25;;;;;;;;;;;;;;;20.15;45.03;101821.06;4948066;28;113547;-76
2023/09/07 04:31:52;;;;;;;;;;;;;;;20.14;45.06;101818.53;4948782;28;115007;-77
2023/09/07 04:34:21;;;;;;;;;;;;;;;20.12;45.11;101826.69;4948464;28;124900;-76
2023/09/07 04:36:48;;;;;;;;;;;;;;;20.11;45.09;101824.09;4945335;28;124829;-76
2023/09/07 04:39:16;;;;;;;;;;;;;;;20.10;45.27;101819.69;4946889;28;114476;-76
2023/09/07 04:41:43;;;;;;;;;;;;;;;20.10;45.33;101827.75;4949269;28;112853;-76
2023/09/07 04:44:10;;;;;;;;;;;;;;;20.08;45.34;101813.53;4947158;28;125357;-76
2023/09/07 04:46:37;;;;;;;;;;;;;;;20.07;45.25;101822.59;4947861;28;124423;-76
2023/09/07 04:49:07;;;;;;;;;;;;;;;20.07;45.48;101830.66;4947499;28;115385;-76
2023/09/07 04:51:34;;;;;;;;;;;;;;;20.07;45.29;101822.59;4947966;28;114992;-76
2023/09/07 04:54:01;;;;;;;;;;;;;;;20.07;45.36;101827.97;4943264;28;123256;-76
2023/09/07 04:56:29;;;;;;;;;;;;;;;20.07;45.34;101834.22;4944020;28;123250;-76
2023/09/07 04:58:57;;;;;;;;;;;;;;;20.08;45.38;101835.06;4939497;28;113967;-76
2023/09/07 05:01:24;;;;;;;;;;;;;;;20.08;45.47;101835.06;4947472;28;114306;-76
2023/09/07 05:03:54;;;;;;;;;;;;;;;20.10;45.40;101833.13;4946614;28;124128;-76
2023/09/07 05:06:22;;;;;;;;;;;;;;;20.09;45.50;101836.78;4957336;28;123429;-76
2023/09/07 05:08:50;;;;;;;;;;;;;;;20.09;45.35;101836.78;4946154;28;116466;-76
2023/09/07 05:11:17;;;;;;;;;;;;;;;20.06;45.37;101835.19;4943413;28;115064;-76
2023/09/07 05:13:44;;;;;;;;;;;;;;;20.06;45.51;101839.69;4942399;28;125284;-75
2023/09/07 05:16:11;;;;;;;;;;;;;;;20.03;45.44;101843.47;4942637;28;124458;-76
2023/09/07 05:18:40;;;;;;;;;;;;;;;20.02;45.44;101850.69;4947199;28;113725;-76
2023/09/07 05:21:12;;;;;;;;;;;;;;;20.01;45.47;101846.25;4940465;28;114297;-76
2023/09/07 05:23:39;;;;;;;;;;;;;;;20.00;45.76;101844.53;4946610;28;123617;-76
2023/09/07 05:26:06;;;;;;;;;;;;;;;19.99;45.46;101848.19;4947880;28;124919;-76
2023/09/07 05:28:34;;;;;;;;;;;;;;;19.99;45.64;101848.19;4934319;28;113952;-76
2023/09/07 05:31:01;;;;;;;;;;;;;;;19.98;45.46;101851.84;4941692;28;114429;-76
2023/09/07 05:33:28;;;;;;;;;;;;;;;19.97;45.61;101855.50;4947507;28;124132;-76
2023/09/07 05:35:55;;;;;;;;;;;;;;;19.98;45.60;101857.22;4929641;28;123195;-76
2023/09/07 05:38:22;;;;;;;;;;;;;;;19.98;45.57;101857.22;4945381;28;114374;-76
2023/09/07 05:40:53;;;;;;;;;;;;;;;19.98;45.65;101865.28;4938333;28;112790;-75
2023/09/07 05:43:22;;;;;;;;;;;;;;;19.98;45.78;101862.59;4947403;28;126507;-76
2023/09/07 05:45:49;;;;;;;;;;;;;;;19.98;45.70;101872.50;4948119;28;123746;-76
2023/09/07 05:48:17;;;;;;;;;;;;;;;20.00;45.67;101876.81;4946411;28;114887;-76
2023/09/07 05:50:45;;;;;;;;;;;;;;;20.00;45.77;101871.44;4942576;28;114769;-76
2023/09/07 05:53:12;;;;;;;;;;;;;;;20.02;45.83;101879.38;4942658;28;125064;-76
2023/09/07 05:55:40;;;;;;;;;;;;;;;20.05;45.99;101875.63;4940588;28;123079;-76
2023/09/07 05:58:08;;;;;;;;;;;;;;;20.08;45.89;101872.72;4951679;28;114538;-76
2023/09/07 06:00:39;;;;;;;;;;;;;;;20.13;45.97;101881.34;4947721;28;116450;-76
2023/09/07 06:03:07;;;;;;;;;;;;;;;20.17;46.08;101882.84;4936535;28;124515;-76
2023/09/07 06:05:35;;;;;;;;;;;;;;;20.21;46.05;101882.53;4946051;28;122875;-75
2023/09/07 06:08:04;;;;;;;;;;;;;;;20.26;46.02;101882.22;4945021;28;112933;-76
2023/09/07 06:10:31;;;;;;;;;;;;;;;20.32;46.10;101887.16;4922755;28;114268;-76
2023/09/07 06:12:58;;;;;;;;;;;;;;;20.37;46.21;101885.00;4939657;28;123473;-76
2023/09/07 06:15:29;;;;;;;;;;;;;;;20.46;46.10;101888.03;4950713;28;122396;-76
2023/09/07 06:17:56;;;;;;;;;;;;;;;20.54;46.30;101896.44;4951028;28;114285;-76
2023/09/07 06:20:23;;;;;;;;;;;;;;;20.63;46.26;101895.81;4950043;28;114088;-76
2023/09/07 06:22:51;;;;;;;;;;;;;;;20.72;46.22;101889.78;4942664;28;125638;-76
2023/09/07 06:25:18;;;;;;;;;;;;;;;20.80;46.31;101882.00;4950681;28;124263;-76
2023/09/07 06:27:46;;;;;;;;;;;;;;;20.91;46.29;101901.94;4944625;28;113686;-76
2023/09/07 06:30:13;;;;;;;;;;;;;;;20.98;46.27;101896.00;4936197;28;116679;-77
2023/09/07 06:32:41;;;;;;;;;;;;;;;21.07;46.25;101899.81;4944060;28;124795;-75
2023/09/07 06:35:10;;;;;;;;;;;;;;;21.16;46.44;101904.53;4941228;28;123744;-76
2023/09/07 06:37:40;;;;;;;;;;;;;;;21.28;46.37;101907.31;4938518;28;114035;-76
2023/09/07 06:40:09;;;;;;;;;;;;;;;21.41;46.42;101912.66;4942014;28;112826;-76
2023/09/07 06:42:37;;;;;;;;;;;;;;;21.50;46.58;101902.09;4948147;28;124152;-75
2023/09/07 06:45:09;;;;;;;;;;;;;;;21.64;46.59;101910.97;4956601;28;122494;-75
2023/09/07 06:47:37;;;;;;;;;;;;;;;21.80;46.68;101918.78;4929872;28;114239;-75
2023/09/07 06:50:05;;;;;;;;;;;;;;;21.95;46.74;101913.06;4950096;28;116491;-75
2023/09/07 06:52:32;;;;;;;;;;;;;;;22.12;46.77;101913.63;4939684;28;123918;-76
2023/09/07 06:54:59;;;;;;;;;;;;;;;22.28;46.74;101914.19;4938539;28;124632;-76
2023/09/07 06:57:26;;;;;;;;;;;;;;;22.45;46.61;101914.69;4950694;28;113139;-75
2023/09/07 06:59:54;;;;;;;;;;;;;;;22.60;46.59;101908.09;4938051;28;114944;-75
2023/09/07 07:02:21;;;;;;;;;;;;;;;22.76;46.62;101917.69;4935363;28;125765;-75
2023/09/07 07:04:48;;;;;;;;;;;;;;;22.91;46.67;101911.06;4944191;28;125314;-75
2023/09/07 07:07:16;;;;;;;;;;;;;;;23.09;46.79;101915.00;4939447;28;115912;-75
2023/09/07 07:09:43;;;;;;;;;;;;;;;23.27;46.76;101906.38;4943453;28;113890;-75
2023/09/07 07:12:10;;;;;;;;;;;;;;;23.39;46.44;101916.16;4947484;28;126265;-75
2023/09/07 07:14:39;;;;;;;;;;;;;;;23.51;46.58;101909.75;4939378;28;124715;-75
2023/09/07 07:17:06;;;;;;;;;;;;;;;23.64;46.59;101914.13;4948068;28;114255;-76
2023/09/07 07:19:34;;;;;;;;;;;;;;;23.78;46.55;101916.53;4938222;28;113791;-75
2023/09/07 07:22:03;;;;;;;;;;;;;;;23.94;46.58;101915.25;4941819;28;125206;-76
2023/09/07 07:24:31;;;;;;;;;;;;;;;24.11;46.62;101917.41;4937130;28;125013;-76
2023/09/07 07:26:59;;;;;;;;;;;;;;;24.31;46.71;101914.84;4950635;28;114614;-76
2023/09/07 07:29:29;;;;;;;;;;;;;;;24.49;46.76;101914.09;4933390;28;113305;-76
2023/09/07 07:32:00;;;;;;;;;;;;;;;24.68;46.66;101921.47;4949677;28;123790;-75
2023/09/07 07:34:27;;;;;;;;;;;;;;;24.81;46.39;101915.00;4936674;28;124261;-76
2023/09/07 07:36:55;;;;;;;;;;;;;;;24.93;46.29;101919.31;4945908;28;116789;-76
2023/09/07 07:39:23;;;;;;;;;;;;;;;25.03;46.31;101920.22;4940066;28;115235;-76
2023/09/07 07:41:50;;;;;;;;;;;;;;;25.14;46.32;101915.66;4939735;28;124425;-75
2023/09/07 07:44:17;;;;;;;;;;;;;;;25.27;46.19;101913.59;4944676;28;123471;-76
2023/09/07 07:46:46;;;;;;;;;;;;;;;25.39;46.48;101915.19;4944494;28;113346;-76
2023/09/07 07:49:14;;;;;;;;;;;;;;;25.52;46.14;101914.06;4958666;28;114352;-76
2023/09/07 07:51:42;;;;;;;;;;;;;;;25.64;46.18;101908.38;4940976;28;124005;-76
2023/09/07 07:54:10;;;;;;;;;;;;;;;25.77;46.28;101913.50;4945432;28;124169;-75
2023/09/07 07:56:38;;;;;;;;;;;;;;;25.88;46.11;101909.81;4943139;28;114019;-75
2023/09/07 07:59:06;;;;;;;;;;;;;;;25.99;46.23;101904.25;4945055;28;113005;-75
2023/09/07 08:01:34;;;;;;;;;;;;;;;26.12;46.06;101903.09;4937465;28;125662;-76
2023/09/07 08:04:02;;;;;;;;;;;;;;;26.26;46.22;101907.19;4946971;28;123192;-75
2023/09/07 08:06:31;;;;;;;;;;;;;;;26.40;45.97;101912.19;4943580;28;113671;-76
2023/09/07 08:08:59;;;;;;;;;;;;;;;26.56;45.92;101914.25;4948297;28;115636;-76
2023/09/07 08:11:27;;;;;;;;;;;;;;;26.69;46.16;101908.53;4948326;28;124977;-76
2023/09/07 08:13:54;;;;;;;;;;;;;;;26.83;45.85;101909.94;4941809;28;122226;-75
2023/09/07 08:16:21;;;;;;;;;;;;;;;26.97;45.93;101896.69;4937760;28;114479;-76
2023/09/07 08:18:49;;;;;;;;;;;;;;;27.11;45.91;101899.91;4940505;28;112214;-75
2023/09/07 08:21:17;;;;;;;;;;;;;;;27.22;45.47;101899.69;4946724;28;122713;-76
2023/09/07 08:23:45;;;;;;;;;;;;;;;27.34;45.49;101898.50;4943893;28;123426;-76
2023/09/07 08:26:14;;;;;;;;;;;;;;;27.48;45.64;101890.81;4940142;28;115999;-75
2023/09/07 08:28:46;;;;;;;;;;;;;;;27.60;45.46;101892.31;4945843;28;114586;-76
2023/09/07 08:31:14;;;;;;;;;;;;;;;27.71;45.42;101883.91;4939887;28;124246;-76
2023/09/07 08:33:41;;;;;;;;;;;;;;;27.83;45.38;101886.38;4943630;28;123431;-76
2023/09/07 08:36:08;;;;;;;;;;;;;;;27.93;45.13;101881.72;4942302;28;115259;-76
2023/09/07 08:38:35;;;;;;;;;;;;;;;28.00;45.38;101877.34;4939730;28;113659;-76
2023/09/07 08:41:05;;;;;;;;;;;;;;;28.05;45.13;101880.47;4938674;28;124338;-75
2023/09/07 08:43:35;;;;;;;;;;;;;;;28.13;45.07;101877.78;4942799;28;126378;-75
2023/09/07 08:46:08;;;;;;;;;;;;;;;28.24;44.89;101884.00;4939487;28;114650;-76
2023/09/07 08:48:36;;;;;;;;;;;;;;;28.33;45.00;101883.00;4939683;28;114115;-75
2023/09/07 08:51:03;;;;;;;;;;;;;;;28.41;44.91;101879.50;4943951;28;124441;-76
2023/09/07 08:53:30;;;;;;;;;;;;;;;28.50;45.00;101878.50;4940928;28;123963;-76
2023/09/07 08:55:57;;;;;;;;;;;;;;;28.56;44.69;101874.31;4942400;28;114553;-75
2023/09/07 08:58:24;;;;;;;;;;;;;;;28.65;44.75;101876.06;4937109;28;113714;-75
2023/09/07 09:00:52;;;;;;;;;;;;;;;28.72;44.70;101871.69;4946075;28;123933;-75
2023/09/07 09:03:20;;;;;;;;;;;;;;;28.81;44.65;101875.31;4939964;28;124009;-75
2023/09/07 09:05:50;;;;;;;;;;;;;;;28.89;44.66;101867.16;4945979;28;113537;-75
2023/09/07 09:08:24;;;;;;;;;;;;;;;28.95;44.43;101865.63;4933276;28;114099;-76
2023/09/07 09:10:58;;;;;;;;;;;;;;;29.02;44.76;101862.06;4940045;28;124642;-76
2023/09/07 09:13:29;;;;;;;;;;;;;;;29.09;44.42;101862.28;4935947;28;124742;-76
2023/09/07 09:15:58;;;;;;;;;;;;;;;29.17;44.33;101870.50;4937891;28;116352;-76
2023/09/07 09:18:26;;;;;;;;;;;;;;;29.23;44.40;101869.81;4936545;28;114760;-76
2023/09/07 09:20:55;;;;;;;;;;;;;;;29.29;44.32;101868.31;4921833;28;125624;-76
2023/09/07 09:23:21;;;;;;;;;;;;;;;29.39;44.39;101868.19;4938245;28;124367;-76
2023/09/07 09:25:49;;;;;;;;;;;;;;;29.47;44.42;101865.44;4934026;28;113632;-75
2023/09/07 09:28:16;;;;;;;;;;;;;;;29.54;44.13;101861.03;4944089;28;112346;-76
2023/09/07 09:30:43;;;;;;;;;;;;;;;29.59;44.25;101857.78;4943630;28;123677;-76
2023/09/07 09:33:10;;;;;;;;;;;;;;;29.67;44.23;101861.38;4942406;28;123785;-76
2023/09/07 09:35:38;;;;;;;;;;;;;;;29.77;44.16;101860.38;4938918;28;114910;-76
2023/09/07 09:38:05;;;;;;;;;;;;;;;29.85;44.15;101863.09;4924556;28;113642;-75
2023/09/07 09:40:34;;;;;;;;;;;;;;;29.91;44.17;101856.94;4940131;28;125529;-76
2023/09/07 09:43:01;;;;;;;;;;;;;;;29.99;44.08;101848.75;4932643;28;123686;-76
2023/09/07 09:45:29;;;;;;;;;;;;;;;30.09;44.00;101846.66;4950323;28;114944;-75
2023/09/07 09:47:58;;;;;;;;;;;;;;;30.18;44.02;101852.13;4945256;28;113568;-76
2023/09/07 09:50:25;;;;;;;;;;;;;;;30.26;43.80;101850.22;4947486;28;124761;-75
2023/09/07 09:52:53;;;;;;;;;;;;;;;30.33;43.78;101844.97;4937332;28;125838;-75
2023/09/07 09:55:21;;;;;;;;;;;;;;;30.37;43.50;101840.84;4939215;28;113745;-75
2023/09/07 09:57:49;;;;;;;;;;;;;;;30.39;43.63;101838.78;4950200;28;114638;-76
2023/09/07 10:02:49;;;;;;;;;;;;;;;30.43;43.61;101837.41;4951079;28;123754;-77
2023/09/07 10:05:18;;;;;;;;;;;;;;;30.46;43.49;101828.84;4941654;28;115999;-76
2023/09/07 10:07:47;;;;;;;;;;;;;;;30.49;43.28;101832.25;4944918;28;114652;-76
2023/09/07 10:10:15;;;;;;;;;;;;;;;30.54;43.15;101836.16;4948987;28;124234;-76
2023/09/07 10:12:43;;;;;;;;;;;;;;;30.57;43.08;101827.63;4944610;28;124083;-78
2023/09/07 10:15:20;;;;;;;;;;;;;;;30.60;43.05;101831.88;4943205;28;115154;-76
2023/09/07 10:17:49;;;;;;;;;;;;;;;30.67;43.22;101824.66;4941370;28;113762;-76
2023/09/07 10:20:17;;;;;;;;;;;;;;;30.77;43.26;101819.81;4942763;28;125282;-76
2023/09/07 10:22:45;;;;;;;;;;;;;;;30.83;43.13;101819.09;4951053;28;122956;-76
2023/09/07 10:25:22;;;;;;;;;;;;;;;30.90;43.05;101818.41;4948483;28;114450;-75
2023/09/07 10:27:49;;;;;;;;;;;;;;;30.97;43.00;101819.41;4944053;28;113567;-75
2023/09/07 10:30:19;;;;;;;;;;;;;;;31.04;42.77;101825.84;4942334;28;125392;-76
2023/09/07 10:32:46;;;;;;;;;;;;;;;31.07;42.98;101820.03;4944463;28;123692;-75
2023/09/07 10:35:14;;;;;;;;;;;;;;;31.09;42.64;101819.84;4947847;28;114565;-76
2023/09/07 10:37:48;;;;;;;;;;;;;;;31.12;42.88;101814.88;4936325;28;114577;-76
2023/09/07 10:40:19;;;;;;;;;;;;;;;31.20;43.21;101819.44;4946617;28;124319;-76
2023/09/07 10:42:46;;;;;;;;;;;;;;;31.29;42.81;101817.47;4944734;28;124321;-76
2023/09/07 10:45:16;;;;;;;;;;;;;;;31.31;42.46;101807.22;4944808;28;114419;-76
2023/09/07 10:47:43;;;;;;;;;;;;;;;31.32;42.68;101811.63;4938722;28;113884;-75
2023/09/07 10:50:12;;;;;;;;;;;;;;;31.36;42.50;101807.50;4950132;28;123959;-76
2023/09/07 10:52:40;;;;;;;;;;;;;;;31.37;42.26;101809.22;4949128;28;124607;-76
2023/09/07 10:55:10;;;;;;;;;;;;;;;31.38;42.31;101810.91;4942854;28;115656;-75
2023/09/07 10:57:43;;;;;;;;;;;;;;;31.39;42.10;101801.66;4943854;28;114108;-77
2023/09/07 11:00:11;;;;;;;;;;;;;;;31.39;42.16;101804.41;4941622;28;125146;-76
2023/09/07 11:02:38;;;;;;;;;;;;;;;31.42;42.50;101804.03;4942912;28;123442;-76
2023/09/07 11:05:06;;;;;;;;;;;;;;;31.46;42.16;101802.63;4946542;28;114209;-76
2023/09/07 11:07:33;;;;;;;;;;;;;;;31.52;42.60;101796.44;4943452;28;114751;-77
2023/09/07 11:10:00;;;;;;;;;;;;;;;31.61;42.47;101798.09;4948846;28;124125;-76
2023/09/07 11:12:27;;;;;;;;;;;;;;;31.70;42.23;101795.25;4944580;28;125015;-76
2023/09/07 11:14:54;;;;;;;;;;;;;;;31.77;42.44;101788.00;4946911;28;114842;-76
2023/09/07 11:17:28;;;;;;;;;;;;;;;31.81;42.31;101794.81;4937397;28;113804;-76
2023/09/07 11:19:55;;;;;;;;;;;;;;;31.83;41.95;101792.72;4944064;28;122396;-76
2023/09/07 11:22:22;;;;;;;;;;;;;;;31.88;42.29;101794.91;4946046;28;124873;-76
2023/09/07 11:24:49;;;;;;;;;;;;;;;31.92;41.81;101797.09;4946032;28;114643;-76
2023/09/07 11:27:17;;;;;;;;;;;;;;;31.97;42.20;101789.16;4946887;28;113650;-76
2023/09/07 11:29:50;;;;;;;;;;;;;;;32.04;42.15;101788.44;4949533;28;124517;-76
2023/09/07 11:32:21;;;;;;;;;;;;;;;32.10;41.77;101782.19;4942329;28;125276;-76
2023/09/07 11:34:49;;;;;;;;;;;;;;;32.14;41.77;101783.53;4938357;28;115559;-77
2023/09/07 11:37:17;;;;;;;;;;;;;;;32.20;42.07;101788.25;4947112;28;113303;-77
2023/09/07 11:39:44;;;;;;;;;;;;;;;32.25;41.77;101783.06;4942055;28;124436;-77
2023/09/07 11:42:11;;;;;;;;;;;;;;;32.29;41.87;101784.38;4943894;28;124503;-77
2023/09/07 11:44:38;;;;;;;;;;;;;;;32.35;41.66;101775.38;4943666;28;116241;-77
2023/09/07 11:47:05;;;;;;;;;;;;;;;32.44;41.81;101778.00;4945004;28;114867;-77
2023/09/07 11:49:33;;;;;;;;;;;;;;;32.47;41.15;101773.00;4938675;28;124175;-77
2023/09/07 11:52:00;;;;;;;;;;;;;;;32.50;41.39;101760.81;4929800;28;124597;-76
2023/09/07 11:54:27;;;;;;;;;;;;;;;32.51;41.39;101762.50;4949651;28;114833;-76
2023/09/07 11:56:54;;;;;;;;;;;;;;;32.54;40.91;101756.63;4957491;28;113020;-76
2023/09/07 11:59:21;;;;;;;;;;;;;;;32.57;41.01;101750.81;4938625;28;124645;-77
2023/09/07 12:01:48;;;;;;;;;;;;;;;32.61;40.80;101746.63;4934405;28;125615;-77
2023/09/07 12:04:15;;;;;;;;;;;;;;;32.62;40.78;101751.06;4960098;28;115064;-77
2023/09/07 12:06:42;;;;;;;;;;;;;;;32.67;41.06;101751.34;4942375;28;113557;-77
2023/09/07 12:09:11;;;;;;;;;;;;;;;32.76;41.23;101750.16;4942711;28;118305;-76
2023/09/07 12:11:39;;;;;;;;;;;;;;;32.85;40.97;101747.28;4933135;28;124756;-77
2023/09/07 12:14:06;;;;;;;;;;;;;;;32.93;41.12;101744.44;4945779;28;113761;-76
2023/09/07 12:16:33;;;;;;;;;;;;;;;33.01;40.59;101736.06;4942779;28;113780;-77
2023/09/07 12:19:00;;;;;;;;;;;;;;;33.06;40.66;101744.56;4945134;28;123696;-76
2023/09/07 12:21:27;;;;;;;;;;;;;;;33.14;40.73;101747.22;4941103;28;124297;-75
2023/09/07 12:23:54;;;;;;;;;;;;;;;33.19;40.39;101727.41;4941126;28;114827;-75
2023/09/07 12:26:21;;;;;;;;;;;;;;;33.25;40.19;101736.75;4947008;28;113224;-76
2023/09/07 12:28:48;;;;;;;;;;;;;;;33.24;40.42;101740.53;4945122;28;124763;-76
2023/09/07 12:31:22;;;;;;;;;;;;;;;33.25;39.94;101736.75;4926051;28;123861;-77
2023/09/07 12:33:50;;;;;;;;;;;;;;;33.28;40.03;101739.09;4930807;28;115684;-77